Frenchville, ME

5:33 AM EST on December 05, 2016 (GMT -0500)
K1FTK | | Change Station

Elev 825 ft 47.25 °N, 68.35 °W | Updated 2 minutes ago

Overcast
Overcast
10.9 °F
Feels Like 11 °F
N
0.0
Wind Variable Wind from SW
Gusts 0.0 mph

Today
High -- | Low -- °F
--% Chance of Precip.
Yesterday
High -- | Low -- °F
Precip. -- in
Pressure 30.09 in
Visibility 10.0 miles
Clouds Overcast 400 ft
Windchill 11 °F
Dew Point 8 °F
Humidity 90%
Rainfall 0.00 in
Snow Depth Not available.
7:04 AM 3:43 PM
Waxing Crescent, 30% visible
METAR KFVE 050953Z AUTO 27005KT 10SM OVC004 M11/M13 A3003 RMK AO2 SLP187 I1000 T11111133
Pressure 30.09 in
Visibility 10.0 miles
Clouds Overcast 400 ft
Windchill 11 °F
Dew Point 8 °F
Humidity 90%
Rainfall 0.00 in
Snow Depth Not available.
7:04 AM 3:43 PM
Waxing Crescent, 30% visible
METAR KFVE 050953Z AUTO 27005KT 10SM OVC004 M11/M13 A3003 RMK AO2 SLP187 I1000 T11111133

10-Day Weather Forecast

Almanac

Astronomy

Dec. 05, 2016 Rise Set
Actual Time
Civil Twilight
Nautical Twilight
Astronomical Twilight
Moon
Length of Visible Light
Length of Day
Tomorrow will be .
, % of the Moon is Illuminated

Today's Extremes

State Highs State Lows

Community

WunderPhotos

Upload Photos

1,955,777 photos uploaded!

WunderBlog® & News

Nearby

Air Quality

  Air Quality AQ Index Pollutant
Not available.

Snow Depth

Station Depth Elevation

Earthquake Activity

City Distance Mag. Time & Date
Minimum magnitude displayed is 2.5.

Coastal Water Temperatures

Place Temperature

Stations

Nearby Weather Stations

Station Location Temp. Windchill Dew Point Humidity Wind Precip. Elev Updated Type
                   

Watches & Warnings

There are currently no watches in effect.